createdAt,value
2023-03-23T15:58:29.466Z,97926.15
2023-03-23T16:01:14.427Z,97923.38
2023-03-23T16:04:05.368Z,97917.25
2023-03-23T16:07:00.374Z,97919.09
2023-03-23T16:09:52.356Z,97916.88
2023-03-23T16:12:27.499Z,97915.48
2023-03-23T16:15:16.372Z,97912.27
2023-03-23T16:17:58.386Z,97915.05
2023-03-23T16:20:46.364Z,97923.65
2023-03-23T16:23:28.342Z,97922.38
2023-03-23T16:26:23.387Z,97917.79
2023-03-23T16:29:39.993Z,97925.23
2023-03-23T16:32:20.361Z,97925.02
2023-03-23T16:35:15.363Z,97923.80
2023-03-23T16:38:08.406Z,97924.84
2023-03-23T16:40:44.782Z,97923.84
2023-03-23T16:43:32.360Z,97921.91
2023-03-23T16:46:07.647Z,97922.77
2023-03-23T16:48:55.356Z,97920.22
2023-03-23T16:51:37.352Z,97921.06
2023-03-23T16:54:32.354Z,97915.63
2023-03-23T16:57:21.332Z,97917.21
2023-03-23T16:59:58.414Z,97916.96
2023-03-23T17:02:49.481Z,97917.70
2023-03-23T17:05:33.491Z,97919.95
2023-03-23T17:08:15.344Z,97924.07
2023-03-23T17:11:03.356Z,97928.59
2023-03-23T17:13:38.058Z,97933.35
2023-03-23T17:16:26.561Z,97934.41
2023-03-23T17:19:08.348Z,97929.13
2023-03-23T17:21:49.533Z,97926.23
2023-03-23T17:24:30.397Z,97929.29
2023-03-23T17:27:25.339Z,97925.73
2023-03-23T17:30:14.340Z,97930.39
2023-03-23T17:32:49.299Z,97936.92
2023-03-23T17:35:37.352Z,97937.42
2023-03-23T17:38:11.594Z,97937.48
2023-03-23T17:41:06.357Z,97944.19
2023-03-23T17:43:42.725Z,97942.84
2023-03-23T17:46:31.579Z,97941.52
2023-03-23T17:49:13.347Z,97944.94
2023-03-23T17:52:08.360Z,97949.16
2023-03-23T17:54:56.333Z,97947.66
2023-03-23T17:57:30.499Z,97947.93
2023-03-23T18:00:19.534Z,97946.17
2023-03-23T18:02:58.310Z,97956.37
2023-03-23T18:05:47.606Z,97960.34
2023-03-23T18:08:22.475Z,97961.80
2023-03-23T18:11:10.388Z,97963.75
2023-03-23T18:13:45.468Z,97963.50
2023-03-23T18:16:33.632Z,97964.30
2023-03-23T18:19:17.397Z,97963.72
2023-03-23T18:21:59.503Z,97965.02
2023-03-23T18:24:40.509Z,97962.75
2023-03-23T18:27:22.489Z,97957.48
2023-03-23T18:30:03.656Z,97956.31
2023-03-23T18:32:46.360Z,97957.70
2023-03-23T18:35:34.374Z,97957.73
2023-03-23T18:38:15.483Z,97958.08
2023-03-23T18:41:03.520Z,97958.85
2023-03-23T18:43:38.862Z,97964.73
2023-03-23T18:46:26.427Z,97968.94
2023-03-23T18:49:00.897Z,97969.67
2023-03-23T18:51:44.358Z,97970.18
2023-03-23T18:54:19.492Z,97966.91
2023-03-23T18:57:04.249Z,97965.57
2023-03-23T18:59:47.354Z,97963.23
2023-03-23T19:02:29.774Z,97955.08
2023-03-23T19:05:11.921Z,97955.51
2023-03-23T19:08:21.467Z,97962.36
2023-03-23T19:11:15.504Z,97969.45
2023-03-23T19:14:03.812Z,97976.59
2023-03-23T19:16:45.688Z,97979.59
2023-03-23T19:19:58.237Z,97984.16
2023-03-23T19:22:34.649Z,97989.88
2023-03-23T19:25:30.345Z,97991.02
2023-03-23T19:31:24.440Z,97997.95
2023-03-23T19:33:59.484Z,97998.02
2023-03-23T19:36:54.324Z,97995.02
2023-03-23T19:39:42.947Z,97994.38
2023-03-23T19:42:38.353Z,97993.88
2023-03-23T19:45:26.377Z,97993.75
2023-03-23T19:48:10.078Z,97993.89
2023-03-23T19:51:06.383Z,97987.58
2023-03-23T19:53:56.637Z,97982.39
2023-03-23T19:56:34.918Z,97978.00
2023-03-23T19:59:23.790Z,97974.08
2023-03-23T20:01:59.309Z,97973.12
2023-03-23T20:04:48.447Z,97971.65
2023-03-23T20:07:30.372Z,97968.95
2023-03-23T20:10:25.769Z,97970.73
2023-03-23T20:13:21.375Z,97973.23
2023-03-23T20:16:09.477Z,97980.38
2023-03-23T20:18:46.127Z,97981.55
2023-03-23T20:21:35.933Z,97985.49
2023-03-23T20:24:13.523Z,97987.66
2023-03-23T20:27:03.184Z,97989.81
2023-03-23T20:29:38.526Z,97992.41
2023-03-23T20:32:26.446Z,97996.45
2023-03-23T20:35:01.560Z,97996.40
2023-03-23T20:37:49.330Z,98000.23
2023-03-23T20:40:23.537Z,97995.84
2023-03-23T20:43:12.489Z,97993.57
2023-03-23T20:45:54.364Z,97995.35
2023-03-23T20:48:50.443Z,98003.46
2023-03-23T20:51:40.433Z,98010.60
2023-03-23T20:54:22.433Z,98011.02
2023-03-23T20:57:10.402Z,98009.95
2023-03-23T20:59:45.476Z,98015.59
2023-03-23T21:02:36.369Z,98014.52
2023-03-23T21:05:18.363Z,98019.16
2023-03-23T21:08:06.351Z,98027.83
2023-03-23T21:10:48.330Z,98027.95
2023-03-23T21:13:45.912Z,98030.60
2023-03-23T21:16:33.351Z,98029.81
2023-03-23T21:19:16.161Z,98027.27
2023-03-23T21:21:57.425Z,98023.96
2023-03-23T21:24:47.358Z,98025.29
2023-03-23T21:27:28.595Z,98026.24
2023-03-23T21:30:10.369Z,98024.58
2023-03-23T21:32:51.666Z,98018.42
2023-03-23T21:35:33.483Z,98012.09
2023-03-23T21:38:15.531Z,98003.80
2023-03-23T21:40:56.351Z,97997.48
2023-03-23T21:43:38.381Z,97998.84
2023-03-23T21:46:25.332Z,98005.80
2023-03-23T21:49:06.601Z,98008.10
2023-03-23T21:51:41.822Z,98006.01
2023-03-23T21:54:29.397Z,98006.03
2023-03-23T21:57:12.490Z,98008.31
2023-03-23T21:59:53.750Z,98011.46
2023-03-23T22:02:41.384Z,98014.35
2023-03-23T22:05:16.167Z,98012.80
2023-03-23T22:08:04.342Z,98013.67
2023-03-23T22:10:42.698Z,98014.04
2023-03-23T22:13:49.339Z,98009.19
2023-03-23T22:16:32.389Z,98015.78
2023-03-23T22:19:13.740Z,98015.05
2023-03-23T22:21:55.313Z,98012.70
2023-03-23T22:24:44.329Z,98013.02
2023-03-23T22:27:25.331Z,98019.17
2023-03-23T22:30:06.493Z,98020.19
2023-03-23T22:32:47.374Z,98020.13
2023-03-23T22:35:28.473Z,98014.94
2023-03-23T22:38:10.350Z,98024.55
2023-03-23T22:41:02.721Z,98020.37
2023-03-23T22:43:45.355Z,98025.31
2023-03-23T22:46:26.488Z,98025.41
2023-03-23T22:49:07.339Z,98028.25
2023-03-23T22:51:48.599Z,98030.89
2023-03-23T22:54:30.344Z,98030.69
2023-03-23T22:57:18.352Z,98026.92
2023-03-23T22:59:52.756Z,98028.20
2023-03-23T23:02:40.487Z,98028.52
2023-03-23T23:05:16.355Z,98033.77
2023-03-23T23:07:58.353Z,98030.02
2023-03-23T23:10:33.501Z,98027.84
2023-03-23T23:13:15.334Z,98032.03
2023-03-23T23:16:05.377Z,98027.22
2023-03-23T23:18:40.947Z,98030.88
2023-03-23T23:21:32.368Z,98033.13
2023-03-23T23:24:07.775Z,98035.05
2023-03-23T23:26:55.910Z,98032.39
2023-03-23T23:29:43.573Z,98034.52
2023-03-23T23:32:18.695Z,98030.61
2023-03-23T23:35:06.557Z,98028.42
2023-03-23T23:37:41.633Z,98027.09
2023-03-23T23:40:29.585Z,98027.07
2023-03-23T23:43:11.582Z,98027.73
2023-03-23T23:45:59.401Z,98028.22
2023-03-23T23:48:35.090Z,98029.14
2023-03-23T23:51:25.347Z,98029.77
2023-03-23T23:54:01.973Z,98030.61
2023-03-23T23:56:50.395Z,98032.65
2023-03-23T23:59:32.330Z,98030.23
